Aérodrome :
LOGIN :

S'inscrire | Disclaimer

   EN    FR    IT 

 










Légende :    VFR   VFR Marginal   IFR   IFR Intensif   IFR Très Intensif
Visi : 
Plafond : 
>= 8 km
>= 3000ft
5 à 8 km
1000 à 3000 ft
1500m à 5 km
500 à 1000 ft
800 à 1500m
200 à 500 ft
< 800m
< 200 ft
Symboles :   Orages  Brouillard  Fortes neiges  Fortes précipitations  Vent > 20 kt
SIGMETs :   Divers  Orages  Givrage  Turbulence  Onde Orograph.  Cendres Volcan.






- Altitude de l'aérodrome : 268 ft
- Code IATA : BFS


EGAA - Belfast Aldergrove

DERNIER METAR :
  • 210520Z 13016KT 9999 FEW015 SCT020 06/04 Q1001

METARs EXPIRÉS :
  • 210450Z 13014KT 9999 FEW014 BKN019 06/04 Q1002
  • 210420Z 13012KT 9999 SCT014 BKN019 OVC025 06/04 Q1002
  • 210350Z 13013KT 9999 SCT014 BKN019 OVC024 06/04 Q1002
  • 210320Z 13013KT 9999 OVC025 06/04 Q1002

TAF TAF EGAA
Valide du 21 à 06h jusqu'au 22 à 06h UTC


210501Z 2106/2206 12014KT 9999 FEW015 SCT025
TEMPO 2106/2118 13017G27KT
TEMPO 2106/2111 BKN014
PROB30
TEMPO 2122/2124 BKN014
TEMPO 2200/2206 7000 -RADZ BKN012



MET'MAP, la Météo Aéronautique d'un coup d'oeil ! - Copyright ORBIFLY Décembre 2007 - Disclaimer

ORBIFLY MET'MAP TEAM :

Programmation & Développement : Alexandra Zaïnal
Conception & Développement : Baudouin d'Aumeries
Co-Programmation & Développement : Marc-Olivier Méhu
Soutien technique & logistique : Manuel Goepfert

Contact : metmap@orbifly.com




SOURCES & CREDITS :

   NOAA